createdAt,value
2023-10-16T00:04:36.376Z,977.05
2023-10-16T00:10:11.983Z,977.18
2023-10-16T00:15:44.014Z,977.43
2023-10-16T00:21:15.934Z,977.25
2023-10-16T00:26:47.391Z,977.16
2023-10-16T00:32:18.961Z,977.12
2023-10-16T00:37:50.615Z,977.19
2023-10-16T00:43:22.450Z,976.87
2023-10-16T00:48:54.184Z,977.21
2023-10-16T00:54:26.947Z,977.1
2023-10-16T00:59:57.523Z,976.78
2023-10-16T01:05:29.090Z,976.82
2023-10-16T01:11:07.408Z,976.26
2023-10-16T01:16:39.213Z,976.51
2023-10-16T01:22:10.712Z,976.39
2023-10-16T01:27:42.636Z,975.92
2023-10-16T01:33:14.675Z,975.49
2023-10-16T01:38:46.085Z,975.27
2023-10-16T01:44:17.829Z,976.19
2023-10-16T01:49:49.898Z,975.53
2023-10-16T01:55:21.467Z,975.74
2023-10-16T02:00:53.379Z,975.47
2023-10-16T02:06:24.755Z,975.62
2023-10-16T02:12:02.922Z,975.33
2023-10-16T02:17:34.804Z,975.33
2023-10-16T02:23:06.395Z,975.32
2023-10-16T02:28:38.096Z,975.51
2023-10-16T02:34:09.675Z,975.31
2023-10-16T02:39:41.594Z,975.84
2023-10-16T02:45:13.327Z,975.17
2023-10-16T02:50:44.898Z,975.6
2023-10-16T02:56:17.049Z,975.62
2023-10-16T03:01:49.124Z,975.48
2023-10-16T03:07:20.845Z,975.66
2023-10-16T03:12:56.385Z,975.39
2023-10-16T03:18:28.091Z,975.15
2023-10-16T03:23:59.980Z,974.63
2023-10-16T03:29:31.397Z,975.0
2023-10-16T03:35:03.166Z,974.55
2023-10-16T03:40:35.110Z,975.02
2023-10-16T03:46:06.938Z,974.93
2023-10-16T03:51:38.687Z,975.19
2023-10-16T03:57:10.126Z,974.38
2023-10-16T04:02:41.932Z,974.44
2023-10-16T04:08:14.016Z,974.46
2023-10-16T04:13:49.655Z,974.21
2023-10-16T04:19:21.237Z,974.43
2023-10-16T04:24:53.212Z,974.31
2023-10-16T04:30:24.804Z,973.84
2023-10-16T04:35:56.526Z,973.47
2023-10-16T04:41:28.341Z,973.89
2023-10-16T04:46:59.880Z,974.24
2023-10-16T04:52:31.637Z,974.24
2023-10-16T04:58:03.791Z,974.11
2023-10-16T05:03:35.160Z,973.63
2023-10-16T05:09:06.897Z,973.73
2023-10-16T05:14:44.764Z,973.56
2023-10-16T05:20:16.648Z,973.76
2023-10-16T05:25:54.964Z,973.66
2023-10-16T05:31:20.168Z,973.55
2023-10-16T05:36:51.833Z,973.86
2023-10-16T05:42:23.618Z,973.69
2023-10-16T05:47:55.436Z,974.27
2023-10-16T05:53:26.919Z,973.8
2023-10-16T05:58:58.855Z,974.24
2023-10-16T06:04:32.056Z,974.42
2023-10-16T06:10:02.272Z,974.83
2023-10-16T06:15:38.420Z,974.84
2023-10-16T06:21:09.947Z,975.15
2023-10-16T06:26:41.727Z,976.15
2023-10-16T06:32:13.307Z,976.06
2023-10-16T06:37:45.089Z,976.82
2023-10-16T06:43:16.827Z,977.54
2023-10-16T06:48:48.769Z,977.51
2023-10-16T06:54:20.203Z,977.93
2023-10-16T06:59:52.061Z,978.29
2023-10-16T07:05:23.617Z,978.0
2023-10-16T07:10:55.726Z,978.17
2023-10-16T07:16:31.740Z,979.45
2023-10-16T07:22:03.588Z,980.0
2023-10-16T07:27:35.054Z,980.53
2023-10-16T07:33:06.891Z,980.11
2023-10-16T07:38:38.335Z,980.76
2023-10-16T07:44:10.363Z,981.15
2023-10-16T07:49:41.908Z,980.95
2023-10-16T07:55:13.662Z,981.89
2023-10-16T08:00:45.838Z,981.89
2023-10-16T08:06:17.144Z,982.6
2023-10-16T08:11:48.983Z,982.5
2023-10-16T08:17:25.573Z,983.09
2023-10-16T08:22:56.652Z,983.46
2023-10-16T08:28:28.453Z,983.31
2023-10-16T08:34:00.066Z,983.36
2023-10-16T08:39:32.127Z,983.22
2023-10-16T08:45:03.631Z,983.38
2023-10-16T08:50:35.090Z,983.5
2023-10-16T08:56:06.762Z,984.07
2023-10-16T09:01:39.030Z,983.68
2023-10-16T09:07:10.421Z,984.01
2023-10-16T09:12:42.144Z,983.48
2023-10-16T09:18:20.195Z,984.2
2023-10-16T09:23:51.838Z,984.6
2023-10-16T09:29:23.487Z,983.82
2023-10-16T09:34:59.659Z,984.0
2023-10-16T09:40:39.494Z,985.05
2023-10-16T09:45:59.086Z,984.39
2023-10-16T09:51:30.549Z,985.03
2023-10-16T09:57:03.241Z,984.91
2023-10-16T10:02:34.079Z,984.85
2023-10-16T10:08:05.543Z,984.14
2023-10-16T10:13:37.433Z,984.16
2023-10-16T10:19:13.845Z,985.18
2023-10-16T10:24:45.409Z,984.95
2023-10-16T10:30:16.870Z,984.47
2023-10-16T10:35:48.536Z,983.66
2023-10-16T10:41:20.422Z,984.51
2023-10-16T10:46:52.328Z,984.74
2023-10-16T10:52:23.894Z,985.23
2023-10-16T10:57:55.828Z,984.5
2023-10-16T11:03:27.216Z,985.56
2023-10-16T11:08:59.175Z,985.22
2023-10-16T11:14:30.620Z,984.58
2023-10-16T11:20:06.994Z,984.4
2023-10-16T11:25:38.425Z,984.95
2023-10-16T11:31:14.173Z,984.45
2023-10-16T11:36:50.522Z,984.92
2023-10-16T11:42:13.563Z,985.39
2023-10-16T11:47:45.429Z,984.89
2023-10-16T11:53:17.280Z,984.34
2023-10-16T11:58:48.863Z,984.37
2023-10-16T12:04:21.246Z,983.64
2023-10-16T12:09:52.375Z,984.65
2023-10-16T12:15:24.287Z,983.52
2023-10-16T12:21:02.482Z,983.74
2023-10-16T12:26:33.972Z,983.27
2023-10-16T12:32:05.545Z,983.22
2023-10-16T12:37:37.230Z,983.15
2023-10-16T12:43:09.183Z,983.92
2023-10-16T12:48:40.961Z,983.12
2023-10-16T12:54:12.442Z,983.21
2023-10-16T12:59:44.289Z,982.43
2023-10-16T13:05:15.948Z,982.51
2023-10-16T13:10:47.497Z,981.91
2023-10-16T13:16:21.010Z,981.77
2023-10-16T13:21:55.348Z,983.02
2023-10-16T13:27:27.064Z,981.3
2023-10-16T13:32:59.087Z,982.42
2023-10-16T13:38:55.576Z,981.42
2023-10-16T13:44:28.696Z,980.01
2023-10-16T13:49:59.099Z,980.78
2023-10-16T13:55:31.057Z,980.63
2023-10-16T14:01:02.447Z,979.29
2023-10-16T14:06:34.113Z,979.55
2023-10-16T14:12:05.934Z,980.19
2023-10-16T14:17:37.835Z,979.05
2023-10-16T14:23:13.841Z,979.65
2023-10-16T14:28:45.593Z,979.33
2023-10-16T14:34:17.564Z,978.75
2023-10-16T14:39:48.805Z,979.23
2023-10-16T14:45:20.709Z,979.0
2023-10-16T14:50:52.271Z,979.65
2023-10-16T14:56:24.346Z,978.28
2023-10-16T15:01:57.128Z,979.15
2023-10-16T15:07:27.598Z,978.37
2023-10-16T15:12:59.364Z,978.99
2023-10-16T15:18:31.955Z,978.08
2023-10-16T15:24:07.174Z,978.19
2023-10-16T15:29:38.702Z,976.97
2023-10-16T15:35:10.416Z,977.16
2023-10-16T15:40:42.163Z,976.96
2023-10-16T15:46:14.194Z,976.36
2023-10-16T15:51:45.775Z,976.84
2023-10-16T15:57:17.370Z,976.08
2023-10-16T16:02:49.477Z,976.59
2023-10-16T16:08:20.816Z,975.97
2023-10-16T16:13:52.615Z,975.86
2023-10-16T16:19:24.810Z,975.9
2023-10-16T16:25:01.018Z,975.08
2023-10-16T16:30:32.189Z,975.35
2023-10-16T16:36:04.225Z,975.6
2023-10-16T16:41:38.363Z,975.67
2023-10-16T16:47:07.123Z,975.18
2023-10-16T16:52:39.097Z,974.76
2023-10-16T16:58:11.047Z,974.87
2023-10-16T17:03:42.889Z,974.84
2023-10-16T17:09:14.197Z,974.94
2023-10-16T17:14:45.949Z,975.0
2023-10-16T17:20:17.700Z,975.11
2023-10-16T17:25:55.599Z,975.48
2023-10-16T17:31:27.375Z,974.47
2023-10-16T17:36:59.028Z,974.81
2023-10-16T17:42:30.914Z,974.74
2023-10-16T17:48:02.906Z,974.59
2023-10-16T17:53:34.431Z,975.0
2023-10-16T17:59:06.126Z,974.96
2023-10-16T18:04:37.911Z,975.04
2023-10-16T18:10:09.458Z,975.01
2023-10-16T18:15:41.175Z,975.17
2023-10-16T18:21:13.146Z,975.08
2023-10-16T18:26:51.071Z,975.04
2023-10-16T18:32:22.970Z,974.89
2023-10-16T18:37:54.469Z,974.58
2023-10-16T18:43:26.301Z,974.35
2023-10-16T18:48:57.879Z,974.97
2023-10-16T18:54:31.245Z,974.98
2023-10-16T19:00:02.494Z,974.87
2023-10-16T19:05:33.309Z,974.79
2023-10-16T19:11:04.989Z,974.96
2023-10-16T19:16:36.956Z,974.89
2023-10-16T19:22:08.220Z,974.86
2023-10-16T19:27:44.508Z,974.73
2023-10-16T19:33:16.378Z,974.64
2023-10-16T19:38:48.591Z,974.61
2023-10-16T19:44:19.520Z,974.65
2023-10-16T19:49:51.300Z,974.43
2023-10-16T19:55:22.861Z,974.2
2023-10-16T20:00:54.884Z,974.16
2023-10-16T20:06:27.122Z,974.45
2023-10-16T20:12:20.136Z,973.35
2023-10-16T20:17:30.022Z,973.9
2023-10-16T20:23:01.918Z,974.42
2023-10-16T20:28:37.670Z,974.15
2023-10-16T20:34:09.511Z,974.12
2023-10-16T20:39:41.499Z,973.95
2023-10-16T20:45:12.998Z,973.66
2023-10-16T20:50:44.491Z,973.66
2023-10-16T20:56:16.495Z,973.51
2023-10-16T21:01:48.120Z,972.99
2023-10-16T21:07:19.999Z,973.15
2023-10-16T21:12:51.486Z,973.82
2023-10-16T21:18:23.604Z,973.74
2023-10-16T21:23:54.898Z,973.57
2023-10-16T21:29:30.916Z,973.31
2023-10-16T21:35:02.906Z,972.88
2023-10-16T21:40:34.542Z,973.05
2023-10-16T21:46:06.805Z,972.86
2023-10-16T21:51:37.934Z,971.9
2023-10-16T21:57:09.654Z,971.88
2023-10-16T22:02:41.494Z,971.53
2023-10-16T22:08:13.045Z,971.53
2023-10-16T22:13:44.673Z,972.47
2023-10-16T22:19:16.659Z,972.7
2023-10-16T22:24:48.220Z,972.1
2023-10-16T22:30:24.514Z,972.44
2023-10-16T22:35:56.176Z,972.81
2023-10-16T22:41:27.829Z,972.62
2023-10-16T22:46:59.664Z,972.55
2023-10-16T22:52:31.097Z,971.63
2023-10-16T22:58:02.804Z,972.32
2023-10-16T23:03:34.981Z,972.34
2023-10-16T23:09:06.510Z,972.09
2023-10-16T23:14:37.976Z,972.15
2023-10-16T23:20:09.944Z,971.58
2023-10-16T23:25:41.532Z,971.42
2023-10-16T23:31:17.967Z,971.19
2023-10-16T23:36:49.373Z,970.6
2023-10-16T23:42:21.151Z,971.27
2023-10-16T23:47:53.158Z,971.25
2023-10-16T23:53:24.626Z,971.87
2023-10-16T23:58:56.413Z,971.79
